Time;durP1;ratioP1;P1;durP2;ratioP2;P2;SDS_P1;SDS_P2;PMS_P1;PMS_P2;Temp;Humidity;BMP_temperature;BMP_pressure;BME280_temperature;BME280_humidity;BME280_pressure;Samples;Min_cycle;Max_cycle;Signal;HPM_P1;HPM_P2
2022/08/26 00:00:26;;;;;;;;;;;21.20;99.90;;;;;;5075808;28;19908;-64
2022/08/26 00:02:52;;;;;;;;;;;21.10;99.90;;;;;;5076025;28;20014;-64
2022/08/26 00:05:17;;;;;;;;;;;21.00;99.90;;;;;;5075954;28;20282;-64
2022/08/26 00:07:43;;;;;;;;;;;21.00;99.90;;;;;;5075923;28;19909;-64
2022/08/26 00:10:10;;;;;;;;;;;21.00;99.90;;;;;;5075912;28;19908;-64
2022/08/26 00:12:35;;;;;;;;;;;20.90;99.90;;;;;;5075400;28;19921;-64
2022/08/26 00:15:01;;;;;;;;;;;20.90;99.90;;;;;;5075489;28;19909;-64
2022/08/26 00:17:27;;;;;;;;;;;20.90;99.90;;;;;;5074300;28;19915;-64
2022/08/26 00:19:52;;;;;;;;;;;20.90;99.90;;;;;;5075681;28;19932;-64
2022/08/26 00:22:18;;;;;;;;;;;20.80;99.90;;;;;;5074095;28;19987;-64
2022/08/26 00:24:43;;;;;;;;;;;20.80;99.90;;;;;;5075612;28;19958;-64
2022/08/26 00:27:09;;;;;;;;;;;20.70;99.90;;;;;;5075234;28;20330;-64
2022/08/26 00:29:34;;;;;;;;;;;20.70;99.90;;;;;;5075253;28;19913;-64
2022/08/26 00:32:01;;;;;;;;;;;20.60;99.90;;;;;;5075376;28;20313;-64
2022/08/26 00:34:27;;;;;;;;;;;20.60;99.90;;;;;;5075414;28;19959;-64
2022/08/26 00:36:53;;;;;;;;;;;20.60;99.90;;;;;;5075170;28;19912;-64
2022/08/26 00:39:19;;;;;;;;;;;20.50;99.90;;;;;;5075600;28;19962;-64
2022/08/26 00:41:44;;;;;;;;;;;20.50;99.90;;;;;;5075007;28;20428;-64
2022/08/26 00:44:10;;;;;;;;;;;20.50;99.90;;;;;;5074907;28;19908;-64
2022/08/26 00:46:40;;;;;;;;;;;20.40;99.90;;;;;;5075121;28;20294;-64
2022/08/26 00:49:07;;;;;;;;;;;20.40;99.90;;;;;;5075094;28;20290;-64
2022/08/26 00:51:35;;;;;;;;;;;20.50;99.90;;;;;;5075072;28;19909;-64
2022/08/26 00:54:03;;;;;;;;;;;20.50;99.90;;;;;;5074631;28;19919;-64
2022/08/26 00:56:32;;;;;;;;;;;20.60;99.90;;;;;;5074125;28;19999;-64
2022/08/26 00:59:00;;;;;;;;;;;20.50;99.90;;;;;;5074878;28;19919;-64
2022/08/26 01:01:27;;;;;;;;;;;20.50;99.90;;;;;;5074563;28;19915;-64
2022/08/26 01:03:54;;;;;;;;;;;20.50;99.90;;;;;;5074794;28;19944;-63
2022/08/26 01:06:20;;;;;;;;;;;20.50;99.90;;;;;;5074634;28;20003;-64
2022/08/26 01:08:46;;;;;;;;;;;20.40;99.90;;;;;;5074688;28;19915;-63
2022/08/26 01:11:12;;;;;;;;;;;20.40;99.90;;;;;;5074400;28;20286;-63
2022/08/26 01:13:38;;;;;;;;;;;20.30;99.90;;;;;;5074169;28;19927;-63
2022/08/26 01:16:05;;;;;;;;;;;20.30;99.90;;;;;;5074564;28;19958;-63
2022/08/26 01:18:30;;;;;;;;;;;20.30;99.90;;;;;;5074508;28;19909;-63
2022/08/26 01:21:16;;;;;;;;;;;20.20;99.90;;;;;;5074459;28;19908;-63
2022/08/26 01:23:43;;;;;;;;;;;20.20;99.90;;;;;;5074049;28;19909;-63
2022/08/26 01:26:13;;;;;;;;;;;20.10;99.90;;;;;;5074165;28;19909;-63
2022/08/26 01:28:39;;;;;;;;;;;20.10;99.90;;;;;;5074057;28;19951;-63
2022/08/26 01:31:07;;;;;;;;;;;20.00;99.90;;;;;;5074333;28;19956;-63
2022/08/26 01:33:36;;;;;;;;;;;20.00;99.90;;;;;;5074030;28;19919;-63
2022/08/26 01:36:02;;;;;;;;;;;20.00;99.90;;;;;;5073071;28;19908;-63
2022/08/26 01:38:28;;;;;;;;;;;19.90;99.90;;;;;;5074242;28;19912;-63
2022/08/26 01:40:53;;;;;;;;;;;19.90;99.90;;;;;;5072715;28;19908;-63
2022/08/26 01:43:21;;;;;;;;;;;19.90;99.90;;;;;;5073873;28;19908;-65
2022/08/26 01:45:48;;;;;;;;;;;19.90;99.90;;;;;;5073858;28;19908;-64
2022/08/26 01:48:16;;;;;;;;;;;19.80;99.90;;;;;;5074129;28;20370;-64
2022/08/26 01:50:42;;;;;;;;;;;19.90;99.90;;;;;;5073855;28;19919;-64
2022/08/26 01:53:09;;;;;;;;;;;19.90;99.90;;;;;;5074014;28;19912;-63
2022/08/26 01:55:36;;;;;;;;;;;19.90;99.90;;;;;;5073790;28;19912;-64
2022/08/26 01:58:04;;;;;;;;;;;19.90;99.90;;;;;;5073842;28;19916;-64
2022/08/26 02:00:31;;;;;;;;;;;19.90;99.90;;;;;;5074182;28;20457;-64
2022/08/26 02:03:28;;;;;;;;;;;19.90;99.90;;;;;;5074082;28;19940;-64
2022/08/26 02:05:47;;;;;;;;;;;19.80;99.90;;;;;;5073655;28;20392;-63
2022/08/26 02:08:13;;;;;;;;;;;19.80;99.90;;;;;;5073705;28;19915;-64
2022/08/26 02:10:40;;;;;;;;;;;19.70;99.90;;;;;;5073814;28;20278;-63
2022/08/26 02:13:06;;;;;;;;;;;19.70;99.90;;;;;;5072098;28;19946;-63
2022/08/26 02:15:33;;;;;;;;;;;19.60;99.90;;;;;;5073798;28;19908;-63
2022/08/26 02:17:58;;;;;;;;;;;19.50;99.90;;;;;;5073751;28;19913;-64
2022/08/26 02:20:24;;;;;;;;;;;19.50;99.90;;;;;;5073788;28;19915;-63
2022/08/26 02:22:50;;;;;;;;;;;19.40;99.90;;;;;;5073766;28;19908;-63
2022/08/26 02:25:22;;;;;;;;;;;19.30;99.90;;;;;;5073686;28;19908;-63
2022/08/26 02:27:48;;;;;;;;;;;19.20;99.90;;;;;;5073709;28;19919;-63
2022/08/26 02:30:16;;;;;;;;;;;19.20;99.90;;;;;;5073662;28;19909;-63
2022/08/26 02:32:42;;;;;;;;;;;19.10;99.90;;;;;;5073572;28;19913;-63
2022/08/26 02:35:08;;;;;;;;;;;19.10;99.90;;;;;;5073585;28;19908;-63
2022/08/26 02:37:34;;;;;;;;;;;19.00;99.90;;;;;;5072152;28;19908;-63
2022/08/26 02:39:59;;;;;;;;;;;19.00;99.90;;;;;;5073541;28;19909;-63
2022/08/26 02:42:25;;;;;;;;;;;18.90;99.90;;;;;;5073560;28;20424;-63
2022/08/26 02:44:50;;;;;;;;;;;18.90;99.90;;;;;;5073509;28;19909;-63
2022/08/26 02:47:16;;;;;;;;;;;18.90;99.90;;;;;;5073471;28;19908;-63
2022/08/26 02:49:42;;;;;;;;;;;18.90;99.90;;;;;;5073432;28;19959;-63
2022/08/26 02:52:08;;;;;;;;;;;18.90;99.90;;;;;;5073378;28;19916;-63
2022/08/26 02:54:34;;;;;;;;;;;18.80;99.90;;;;;;5073407;28;19915;-63
2022/08/26 02:56:59;;;;;;;;;;;18.80;99.90;;;;;;5073425;28;19916;-63
2022/08/26 02:59:25;;;;;;;;;;;18.80;99.90;;;;;;5073149;28;19934;-63
2022/08/26 03:01:51;;;;;;;;;;;18.90;99.90;;;;;;5073611;28;19957;-63
2022/08/26 03:04:16;;;;;;;;;;;18.80;99.90;;;;;;5073307;28;19908;-63
2022/08/26 03:06:42;;;;;;;;;;;18.80;99.90;;;;;;5073045;28;19908;-63
2022/08/26 03:09:07;;;;;;;;;;;18.80;99.90;;;;;;5072986;28;19909;-63
2022/08/26 03:11:34;;;;;;;;;;;18.70;99.90;;;;;;5073100;28;19909;-63
2022/08/26 03:13:59;;;;;;;;;;;18.70;99.90;;;;;;5073144;28;19913;-64
2022/08/26 03:16:25;;;;;;;;;;;18.60;99.90;;;;;;5072976;28;20414;-63
2022/08/26 03:18:51;;;;;;;;;;;18.60;99.90;;;;;;5073270;28;19909;-63
2022/08/26 03:21:16;;;;;;;;;;;18.50;99.90;;;;;;5076234;28;19959;-63
2022/08/26 03:23:43;;;;;;;;;;;18.50;99.90;;;;;;5076540;28;20287;-63
2022/08/26 03:26:10;;;;;;;;;;;18.50;99.90;;;;;;5076501;28;19912;-63
2022/08/26 03:30:38;;;;;;;;;;;18.40;99.90;;;;;;5076432;28;19915;-63
2022/08/26 03:31:21;;;;;;;;;;;18.50;99.90;;;;;;5076216;28;20353;-63
2022/08/26 03:33:47;;;;;;;;;;;18.40;99.90;;;;;;5076507;28;19912;-63
2022/08/26 03:36:12;;;;;;;;;;;18.40;99.90;;;;;;5076560;28;19909;-63
2022/08/26 03:38:38;;;;;;;;;;;18.30;99.90;;;;;;5076284;28;19956;-63
2022/08/26 03:41:03;;;;;;;;;;;18.30;99.90;;;;;;5076420;28;20381;-63
2022/08/26 03:43:29;;;;;;;;;;;18.30;99.90;;;;;;5076385;28;20398;-63
2022/08/26 03:45:54;;;;;;;;;;;18.20;99.90;;;;;;5076093;28;20440;-63
2022/08/26 03:48:19;;;;;;;;;;;18.20;99.90;;;;;;5076327;28;19916;-63
2022/08/26 03:50:45;;;;;;;;;;;18.20;99.90;;;;;;5076280;28;19957;-64
2022/08/26 03:53:10;;;;;;;;;;;18.10;99.90;;;;;;5075848;28;20290;-63
2022/08/26 03:55:36;;;;;;;;;;;18.10;99.90;;;;;;5076191;28;20001;-63
2022/08/26 03:58:01;;;;;;;;;;;18.00;99.90;;;;;;5076098;28;19908;-64
2022/08/26 04:00:27;;;;;;;;;;;18.00;99.90;;;;;;5076046;28;20325;-64
2022/08/26 04:02:53;;;;;;;;;;;18.00;99.90;;;;;;5076074;28;19909;-66
2022/08/26 04:05:19;;;;;;;;;;;18.00;99.90;;;;;;5075614;28;19916;-66
2022/08/26 04:07:45;;;;;;;;;;;17.90;99.90;;;;;;5074491;28;19954;-66
2022/08/26 04:10:12;;;;;;;;;;;17.90;99.90;;;;;;5075920;28;20340;-65
2022/08/26 04:12:38;;;;;;;;;;;17.90;99.90;;;;;;5074091;28;19970;-65
2022/08/26 04:15:06;;;;;;;;;;;17.90;99.90;;;;;;5075817;28;19912;-65
2022/08/26 04:17:31;;;;;;;;;;;17.80;99.90;;;;;;5075758;28;20331;-66
2022/08/26 04:19:57;;;;;;;;;;;17.90;99.90;;;;;;5075402;28;19951;-66
2022/08/26 04:22:22;;;;;;;;;;;17.90;99.90;;;;;;5075689;28;19909;-66
2022/08/26 04:24:48;;;;;;;;;;;17.90;99.90;;;;;;5075639;28;19912;-66
2022/08/26 04:27:13;;;;;;;;;;;17.90;99.90;;;;;;5075324;28;19908;-65
2022/08/26 04:29:40;;;;;;;;;;;17.90;99.90;;;;;;5075261;28;19909;-67
2022/08/26 04:32:07;;;;;;;;;;;17.90;99.90;;;;;;5075390;28;20259;-66
2022/08/26 04:34:33;;;;;;;;;;;17.90;99.90;;;;;;5075440;28;19908;-66
2022/08/26 04:36:58;;;;;;;;;;;18.00;99.90;;;;;;5075374;28;19935;-66
2022/08/26 04:39:24;;;;;;;;;;;18.00;99.90;;;;;;5074991;28;19909;-66
2022/08/26 04:41:53;;;;;;;;;;;18.00;99.90;;;;;;5074978;28;19916;-66
2022/08/26 04:44:19;;;;;;;;;;;18.10;99.90;;;;;;5074073;28;20003;-66
2022/08/26 04:46:45;;;;;;;;;;;18.20;99.90;;;;;;5075172;28;20333;-66
2022/08/26 04:49:11;;;;;;;;;;;18.20;99.90;;;;;;5073514;28;19908;-66
2022/08/26 04:51:37;;;;;;;;;;;18.20;99.90;;;;;;5075023;28;19952;-66
2022/08/26 04:54:05;;;;;;;;;;;18.30;99.90;;;;;;5074665;28;19912;-66
2022/08/26 04:56:33;;;;;;;;;;;18.30;99.90;;;;;;5075016;28;19908;-66
2022/08/26 04:58:59;;;;;;;;;;;18.30;99.90;;;;;;5075109;28;20348;-67
2022/08/26 05:01:24;;;;;;;;;;;18.40;99.90;;;;;;5074647;28;19908;-67
2022/08/26 05:03:50;;;;;;;;;;;18.40;99.90;;;;;;5074711;28;19913;-67
2022/08/26 05:06:16;;;;;;;;;;;18.40;99.90;;;;;;5073346;28;19916;-66
2022/08/26 05:08:41;;;;;;;;;;;18.40;99.90;;;;;;5074730;28;19915;-66
2022/08/26 05:11:07;;;;;;;;;;;18.40;99.90;;;;;;5074674;28;19989;-67
2022/08/26 05:13:33;;;;;;;;;;;18.40;99.90;;;;;;5073001;28;19920;-66
2022/08/26 05:16:03;;;;;;;;;;;18.40;99.90;;;;;;5074282;28;19912;-67
2022/08/26 05:18:30;;;;;;;;;;;18.50;99.90;;;;;;5074247;28;19912;-66
2022/08/26 05:20:56;;;;;;;;;;;18.50;99.90;;;;;;5073370;28;19999;-66
2022/08/26 05:23:23;;;;;;;;;;;18.50;99.90;;;;;;5074468;28;20366;-66
2022/08/26 05:25:50;;;;;;;;;;;18.60;99.90;;;;;;5074467;28;19924;-66
2022/08/26 05:28:17;;;;;;;;;;;18.60;99.90;;;;;;5073246;28;20442;-66
2022/08/26 05:30:42;;;;;;;;;;;18.60;99.90;;;;;;5072964;28;19952;-66
2022/08/26 05:33:08;;;;;;;;;;;18.60;99.90;;;;;;5073086;28;19955;-67
2022/08/26 05:35:34;;;;;;;;;;;18.70;99.90;;;;;;5074111;28;19908;-67
2022/08/26 05:38:00;;;;;;;;;;;18.80;99.90;;;;;;5074249;28;19915;-67
2022/08/26 05:40:26;;;;;;;;;;;18.90;99.90;;;;;;5072899;28;20351;-68
2022/08/26 05:42:52;;;;;;;;;;;19.00;99.90;;;;;;5073830;28;19908;-66
2022/08/26 05:45:18;;;;;;;;;;;19.10;99.90;;;;;;5073805;28;20371;-68
2022/08/26 05:47:44;;;;;;;;;;;19.30;99.90;;;;;;5073885;28;20294;-69
2022/08/26 05:50:10;;;;;;;;;;;19.60;99.90;;;;;;5074106;28;19912;-69
2022/08/26 05:52:36;;;;;;;;;;;20.00;99.90;;;;;;5074069;28;19951;-65
2022/08/26 05:55:02;;;;;;;;;;;20.40;99.90;;;;;;5073990;28;20377;-63
2022/08/26 05:57:28;;;;;;;;;;;20.80;99.90;;;;;;5073982;28;19908;-63
2022/08/26 05:59:54;;;;;;;;;;;21.10;99.90;;;;;;5072805;28;19931;-63
2022/08/26 06:02:19;;;;;;;;;;;21.60;99.90;;;;;;5071172;28;19912;-64
2022/08/26 06:04:46;;;;;;;;;;;21.60;99.90;;;;;;5053408;28;20434;-63
2022/08/26 06:07:11;;;;;;;;;;;22.10;99.90;;;;;;5073773;28;19909;-65
2022/08/26 06:09:37;;;;;;;;;;;22.10;99.90;;;;;;5068298;28;20351;-67
2022/08/26 06:12:02;;;;;;;;;;;22.40;99.90;;;;;;5038251;28;19921;-68
2022/08/26 06:14:29;;;;;;;;;;;22.40;99.90;;;;;;5056678;28;19921;-67
2022/08/26 06:16:55;;;;;;;;;;;22.60;99.90;;;;;;5037049;28;20050;-67
2022/08/26 06:19:21;;;;;;;;;;;22.90;99.90;;;;;;5065417;28;19999;-67
2022/08/26 06:21:48;;;;;;;;;;;23.30;99.90;;;;;;5072733;28;19908;-67
2022/08/26 06:27:00;;;;;;;;;;;22.70;99.90;;;;;;5064261;28;19912;-67
2022/08/26 06:29:27;;;;;;;;;;;23.10;99.90;;;;;;5073255;28;19920;-67
2022/08/26 06:31:53;;;;;;;;;;;23.50;99.90;;;;;;5072916;28;19912;-68
2022/08/26 06:34:19;;;;;;;;;;;23.60;99.90;;;;;;5072934;28;19924;-67
2022/08/26 06:36:46;;;;;;;;;;;;;;;;;;5071833;28;19912;-67
2022/08/26 06:39:12;;;;;;;;;;;22.20;99.90;;;;;;5073235;28;19952;-67
2022/08/26 06:41:38;;;;;;;;;;;21.60;99.90;;;;;;5073333;28;19909;-67
2022/08/26 06:44:04;;;;;;;;;;;21.30;99.90;;;;;;5073065;28;20264;-67
2022/08/26 06:46:30;;;;;;;;;;;20.80;99.90;;;;;;5073032;28;19916;-67
2022/08/26 06:48:57;;;;;;;;;;;20.80;99.90;;;;;;5073158;28;19958;-67
2022/08/26 06:51:24;;;;;;;;;;;20.50;99.90;;;;;;5072812;28;19914;-66
2022/08/26 06:53:51;;;;;;;;;;;20.30;99.90;;;;;;5073002;28;20367;-67
2022/08/26 06:56:22;;;;;;;;;;;20.30;99.90;;;;;;5075171;28;20375;-67
2022/08/26 06:58:47;;;;;;;;;;;20.40;99.90;;;;;;5075922;28;19916;-67
2022/08/26 07:01:14;;;;;;;;;;;20.40;99.90;;;;;;5076047;28;20062;-67
2022/08/26 07:03:40;;;;;;;;;;;20.40;99.90;;;;;;5058530;28;19916;-67
2022/08/26 07:06:05;;;;;;;;;;;20.50;99.90;;;;;;5076344;28;19912;-67
2022/08/26 07:08:31;;;;;;;;;;;20.40;99.90;;;;;;5058958;28;19991;-67
2022/08/26 07:10:57;;;;;;;;;;;20.60;99.90;;;;;;5076602;28;19916;-67
2022/08/26 07:13:22;;;;;;;;;;;20.50;99.90;;;;;;5075915;28;19920;-67
2022/08/26 07:15:48;;;;;;;;;;;20.50;99.90;;;;;;5076545;28;20336;-67
2022/08/26 07:18:14;;;;;;;;;;;20.50;99.90;;;;;;5076631;28;20227;-67
2022/08/26 07:20:39;;;;;;;;;;;20.50;99.90;;;;;;5076621;28;19908;-67
2022/08/26 07:23:06;;;;;;;;;;;20.40;99.90;;;;;;5076207;28;19912;-67
2022/08/26 07:25:31;;;;;;;;;;;20.40;99.90;;;;;;5076319;28;20416;-67
2022/08/26 07:27:57;;;;;;;;;;;20.50;99.90;;;;;;5076220;28;19913;-67
2022/08/26 07:30:22;;;;;;;;;;;20.40;99.90;;;;;;5076476;28;20413;-66
2022/08/26 07:32:48;;;;;;;;;;;20.50;99.90;;;;;;5069486;28;19920;-66
2022/08/26 07:35:14;;;;;;;;;;;20.50;99.90;;;;;;5069615;28;19915;-67
2022/08/26 07:37:40;;;;;;;;;;;20.50;99.90;;;;;;5056541;28;19928;-67
2022/08/26 07:40:06;;;;;;;;;;;20.60;99.90;;;;;;5066837;28;20432;-66
2022/08/26 07:42:32;;;;;;;;;;;20.60;99.90;;;;;;5072634;28;19919;-67
2022/08/26 07:44:58;;;;;;;;;;;20.50;99.90;;;;;;5069841;28;19916;-67
2022/08/26 07:47:23;;;;;;;;;;;20.60;99.90;;;;;;5071785;28;19909;-67
2022/08/26 07:49:49;;;;;;;;;;;20.70;99.90;;;;;;5074374;28;19912;-67
2022/08/26 07:52:14;;;;;;;;;;;20.80;99.90;;;;;;5074954;28;19912;-66
2022/08/26 07:54:43;;;;;;;;;;;20.80;99.90;;;;;;5043533;28;20390;-66
2022/08/26 07:57:09;;;;;;;;;;;20.70;99.90;;;;;;5050439;28;20401;-67
2022/08/26 07:59:34;;;;;;;;;;;20.80;99.90;;;;;;5067396;28;19920;-66
2022/08/26 08:02:00;;;;;;;;;;;20.90;99.90;;;;;;5072191;28;20276;-67
2022/08/26 08:04:25;;;;;;;;;;;21.10;99.90;;;;;;5075978;28;19957;-67
2022/08/26 08:06:51;;;;;;;;;;;21.10;99.90;;;;;;5073793;28;20070;-67
2022/08/26 08:09:16;;;;;;;;;;;21.10;99.90;;;;;;5074875;28;19913;-67
2022/08/26 08:11:43;;;;;;;;;;;21.10;99.90;;;;;;5075269;28;19921;-66
2022/08/26 08:14:09;;;;;;;;;;;21.20;99.90;;;;;;5074451;28;19932;-67
2022/08/26 08:16:35;;;;;;;;;;;21.20;99.90;;;;;;5075449;28;19913;-67
2022/08/26 08:19:00;;;;;;;;;;;21.20;99.90;;;;;;5075618;28;19912;-68
2022/08/26 08:21:26;;;;;;;;;;;21.40;99.90;;;;;;5074813;28;19931;-68
2022/08/26 08:23:53;;;;;;;;;;;21.60;99.90;;;;;;5067838;28;19913;-66
2022/08/26 08:26:19;;;;;;;;;;;21.70;99.90;;;;;;5060034;28;19920;-67
2022/08/26 08:28:45;;;;;;;;;;;21.70;99.90;;;;;;5062281;28;20011;-68
2022/08/26 08:31:17;;;;;;;;;;;21.80;99.90;;;;;;5074638;28;19913;-68
2022/08/26 08:33:42;;;;;;;;;;;22.00;99.90;;;;;;5068438;28;19924;-67
2022/08/26 08:36:08;;;;;;;;;;;22.20;99.90;;;;;;5061118;28;19917;-67
2022/08/26 08:38:33;;;;;;;;;;;22.30;99.90;;;;;;5061545;28;19995;-67
2022/08/26 08:40:59;;;;;;;;;;;22.30;99.90;;;;;;5050541;28;19924;-67
2022/08/26 08:43:37;;;;;;;;;;;22.50;99.90;;;;;;5071432;28;19912;-67
2022/08/26 08:46:06;;;;;;;;;;;22.50;99.90;;;;;;5067574;28;20052;-67
2022/08/26 08:48:34;;;;;;;;;;;22.80;99.90;;;;;;5071645;28;20053;-67
2022/08/26 08:51:09;;;;;;;;;;;22.80;99.90;;;;;;5067037;28;19956;-67
2022/08/26 08:53:37;;;;;;;;;;;22.50;99.90;;;;;;5064339;28;20068;-67
2022/08/26 08:56:09;;;;;;;;;;;22.50;99.90;;;;;;5070177;28;19913;-67
2022/08/26 08:58:43;;;;;;;;;;;22.30;99.90;;;;;;5069736;28;19920;-68
2022/08/26 09:01:12;;;;;;;;;;;22.50;99.90;;;;;;5066936;28;20203;-66
2022/08/26 09:03:50;;;;;;;;;;;22.50;99.90;;;;;;5066223;28;19913;-67
2022/08/26 09:06:17;;;;;;;;;;;22.80;99.90;;;;;;5065723;28;19921;-66
2022/08/26 09:08:45;;;;;;;;;;;23.20;99.90;;;;;;5068621;28;20393;-67
2022/08/26 09:11:10;;;;;;;;;;;23.00;99.90;;;;;;5072661;28;19909;-67
2022/08/26 09:13:36;;;;;;;;;;;23.00;99.90;;;;;;5071847;28;19920;-67
2022/08/26 09:16:07;;;;;;;;;;;23.10;99.90;;;;;;5073155;28;19935;-69
2022/08/26 09:18:38;;;;;;;;;;;23.00;99.90;;;;;;5067662;28;19935;-69
2022/08/26 09:21:05;;;;;;;;;;;23.00;99.90;;;;;;5058497;28;20627;-68
2022/08/26 09:23:32;;;;;;;;;;;23.10;99.90;;;;;;5055891;28;20337;-68
2022/08/26 09:25:59;;;;;;;;;;;22.90;99.90;;;;;;5058643;28;19916;-67
2022/08/26 09:28:26;;;;;;;;;;;22.90;99.90;;;;;;5054450;28;19951;-68
2022/08/26 09:31:11;;;;;;;;;;;22.90;99.90;;;;;;5059830;28;19912;-69
2022/08/26 09:33:39;;;;;;;;;;;23.00;99.90;;;;;;5069603;28;19912;-69
2022/08/26 09:36:22;;;;;;;;;;;23.10;99.90;;;;;;5064601;28;20382;-67
2022/08/26 09:38:49;;;;;;;;;;;23.30;99.90;;;;;;5069590;28;20382;-70
2022/08/26 09:41:20;;;;;;;;;;;23.40;99.90;;;;;;5070101;28;20094;-67
2022/08/26 09:44:05;;;;;;;;;;;23.30;99.90;;;;;;5068742;28;19920;-70
2022/08/26 09:46:31;;;;;;;;;;;23.40;99.90;;;;;;5054873;28;19966;-69
2022/08/26 09:49:17;;;;;;;;;;;23.60;99.90;;;;;;5052679;28;19908;-69
2022/08/26 09:51:43;;;;;;;;;;;23.10;99.90;;;;;;5067747;28;19916;-69
2022/08/26 09:54:22;;;;;;;;;;;23.20;99.90;;;;;;5074166;28;20015;-69
2022/08/26 09:56:48;;;;;;;;;;;23.30;99.90;;;;;;5069503;28;20370;-69
2022/08/26 09:59:27;;;;;;;;;;;23.50;99.90;;;;;;5067519;28;19913;-68
2022/08/26 10:01:53;;;;;;;;;;;23.80;99.90;;;;;;5072825;28;20399;-69
2022/08/26 10:04:20;;;;;;;;;;;23.90;99.90;;;;;;5039100;28;20390;-68
2022/08/26 10:06:55;;;;;;;;;;;24.30;99.90;;;;;;5073754;28;19909;-70
2022/08/26 10:09:22;;;;;;;;;;;24.40;99.90;;;;;;5055549;28;19912;-69
2022/08/26 10:11:50;;;;;;;;;;;24.10;99.90;;;;;;5075144;28;19923;-68
2022/08/26 10:14:21;;;;;;;;;;;24.00;99.90;;;;;;5060993;28;20384;-67
2022/08/26 10:17:06;;;;;;;;;;;23.90;99.90;;;;;;5064587;28;19917;-69
2022/08/26 10:19:35;;;;;;;;;;;24.00;99.90;;;;;;5063136;28;19962;-68
2022/08/26 10:22:03;;;;;;;;;;;24.00;99.90;;;;;;5051691;28;19919;-69
2022/08/26 10:24:33;;;;;;;;;;;24.00;99.90;;;;;;5070228;28;19916;-68
2022/08/26 10:27:04;;;;;;;;;;;24.20;99.90;;;;;;5074921;28;19939;-69
2022/08/26 10:29:34;;;;;;;;;;;24.50;99.90;;;;;;5073864;28;19912;-68
2022/08/26 10:32:03;;;;;;;;;;;24.60;99.90;;;;;;5048005;28;20001;-69
2022/08/26 10:34:30;;;;;;;;;;;24.70;99.90;;;;;;5092583;28;20375;-68
2022/08/26 10:37:00;;;;;;;;;;;24.60;99.90;;;;;;5079690;28;20012;-69
2022/08/26 10:39:30;;;;;;;;;;;24.70;99.90;;;;;;5072419;28;19913;-68
2022/08/26 10:42:00;;;;;;;;;;;24.80;99.90;;;;;;5079167;28;19916;-72
2022/08/26 10:44:27;;;;;;;;;;;24.70;99.90;;;;;;5075679;28;19921;-69
2022/08/26 10:46:55;;;;;;;;;;;24.50;99.90;;;;;;5080068;28;20366;-68
2022/08/26 10:49:21;;;;;;;;;;;24.70;99.90;;;;;;5058881;28;19919;-69
2022/08/26 10:51:53;;;;;;;;;;;24.60;99.90;;;;;;5089110;28;19990;-69
2022/08/26 10:54:24;;;;;;;;;;;24.50;99.90;;;;;;5080412;28;19916;-69
2022/08/26 10:57:10;;;;;;;;;;;24.40;99.90;;;;;;5065957;28;20342;-69
2022/08/26 10:59:44;;;;;;;;;;;24.50;99.90;;;;;;5077021;28;20382;-69
2022/08/26 11:02:23;;;;;;;;;;;24.70;99.90;;;;;;5067084;28;20366;-68
2022/08/26 11:05:05;;;;;;;;;;;24.60;99.90;;;;;;5061340;28;20019;-69
2022/08/26 11:07:50;;;;;;;;;;;24.50;99.90;;;;;;5078036;28;19931;-68
2022/08/26 11:12:55;;;;;;;;;;;24.40;99.90;;;;;;5087333;28;20295;-68
2022/08/26 11:18:03;;;;;;;;;;;24.40;99.90;;;;;;5093896;27;19918;-69
2022/08/26 11:20:37;;;;;;;;;;;24.40;99.90;;;;;;5099413;28;20315;-68
2022/08/26 11:23:24;;;;;;;;;;;24.40;99.90;;;;;;5100016;28;20374;-69
2022/08/26 11:25:59;;;;;;;;;;;24.60;99.90;;;;;;5092750;28;19923;-68
2022/08/26 11:28:43;;;;;;;;;;;24.80;99.90;;;;;;5103338;28;19913;-69
2022/08/26 11:31:10;;;;;;;;;;;24.90;99.90;;;;;;5074212;28;19955;-69
2022/08/26 11:33:53;;;;;;;;;;;24.80;99.90;;;;;;5101237;28;19948;-67
2022/08/26 11:36:38;;;;;;;;;;;25.00;99.90;;;;;;5099096;28;19921;-69
2022/08/26 11:39:22;;;;;;;;;;;25.20;99.90;;;;;;5101763;28;20352;-68
2022/08/26 11:41:50;;;;;;;;;;;25.30;99.90;;;;;;5090366;28;19920;-68
2022/08/26 11:44:18;;;;;;;;;;;25.10;99.90;;;;;;5090765;28;20294;-68
2022/08/26 11:46:54;;;;;;;;;;;24.70;99.90;;;;;;5102565;28;19916;-68
2022/08/26 11:49:19;;;;;;;;;;;24.70;99.90;;;;;;5111226;28;19912;-69
2022/08/26 11:51:45;;;;;;;;;;;24.60;99.90;;;;;;5109696;28;19957;-68
2022/08/26 11:54:12;;;;;;;;;;;24.40;99.90;;;;;;5110823;28;19908;-68
2022/08/26 11:56:39;;;;;;;;;;;24.60;99.90;;;;;;5085208;28;19916;-69
2022/08/26 11:59:08;;;;;;;;;;;24.60;99.90;;;;;;5086915;28;20054;-64
2022/08/26 12:01:35;;;;;;;;;;;24.90;99.90;;;;;;5106785;28;19956;-66
2022/08/26 12:04:03;;;;;;;;;;;24.70;99.90;;;;;;5088908;28;19916;-64
2022/08/26 12:06:30;;;;;;;;;;;24.80;99.90;;;;;;5087400;28;19915;-63
2022/08/26 12:08:58;;;;;;;;;;;24.90;99.90;;;;;;5089169;28;19916;-69
2022/08/26 12:11:27;;;;;;;;;;;25.00;99.90;;;;;;5090113;28;19909;-67
2022/08/26 12:13:53;;;;;;;;;;;25.30;99.90;;;;;;5109379;28;19913;-67
2022/08/26 12:16:22;;;;;;;;;;;25.30;99.90;;;;;;5084928;28;19921;-66
2022/08/26 12:18:48;;;;;;;;;;;25.30;99.90;;;;;;5107602;28;19912;-67
2022/08/26 12:21:20;;;;;;;;;;;25.30;99.90;;;;;;5097981;28;19908;-67
2022/08/26 12:23:48;;;;;;;;;;;25.40;99.90;;;;;;5088391;28;20282;-67
2022/08/26 12:26:33;;;;;;;;;;;25.40;99.90;;;;;;5102107;28;19919;-68
2022/08/26 12:29:01;;;;;;;;;;;25.50;99.90;;;;;;5085558;28;19908;-68
2022/08/26 12:31:28;;;;;;;;;;;25.60;99.90;;;;;;5096339;28;20335;-68
2022/08/26 12:33:54;;;;;;;;;;;25.80;99.90;;;;;;5096332;28;20043;-68
2022/08/26 12:36:22;;;;;;;;;;;25.80;99.90;;;;;;5078408;28;20297;-68
2022/08/26 12:38:47;;;;;;;;;;;25.80;99.90;;;;;;5096530;28;19908;-68
2022/08/26 12:41:32;;;;;;;;;;;25.70;99.90;;;;;;5096442;28;20271;-68
2022/08/26 12:43:58;;;;;;;;;;;25.80;99.90;;;;;;5096232;28;19912;-69
2022/08/26 12:46:25;;;;;;;;;;;25.90;99.90;;;;;;5096530;28;19915;-68
2022/08/26 12:48:51;;;;;;;;;;;26.00;99.90;;;;;;5096544;28;20374;-68
2022/08/26 12:51:20;;;;;;;;;;;26.10;99.90;;;;;;5096441;28;19953;-68
2022/08/26 12:53:46;;;;;;;;;;;26.30;99.90;;;;;;5096244;28;19962;-68
2022/08/26 12:56:31;;;;;;;;;;;26.30;99.90;;;;;;5096320;28;19947;-68
2022/08/26 12:59:07;;;;;;;;;;;26.10;99.90;;;;;;5095865;28;19908;-68
2022/08/26 13:01:37;;;;;;;;;;;26.10;99.90;;;;;;5096023;28;20409;-69
2022/08/26 13:04:04;;;;;;;;;;;26.20;99.90;;;;;;5096177;28;19952;-68
2022/08/26 13:06:30;;;;;;;;;;;26.10;99.90;;;;;;5096181;28;20011;-68
2022/08/26 13:08:58;;;;;;;;;;;26.30;99.90;;;;;;5095800;28;19943;-68
2022/08/26 13:11:26;;;;;;;;;;;25.90;99.90;;;;;;5095779;28;19908;-68
2022/08/26 13:13:56;;;;;;;;;;;25.60;99.90;;;;;;5096036;28;19915;-68
2022/08/26 13:16:22;;;;;;;;;;;25.50;99.90;;;;;;5095417;28;19969;-67
2022/08/26 13:18:49;;;;;;;;;;;25.50;99.90;;;;;;5095651;28;19999;-68
2022/08/26 13:21:17;;;;;;;;;;;25.60;99.90;;;;;;5095508;28;19908;-68
2022/08/26 13:23:43;;;;;;;;;;;25.60;99.90;;;;;;5095604;28;20358;-67
2022/08/26 13:26:11;;;;;;;;;;;25.60;99.90;;;;;;5095626;28;20282;-66
2022/08/26 13:28:37;;;;;;;;;;;25.60;99.90;;;;;;5077827;28;19915;-67
2022/08/26 13:31:03;;;;;;;;;;;25.70;99.90;;;;;;5095682;28;19912;-67
2022/08/26 13:33:29;;;;;;;;;;;25.70;99.90;;;;;;5095634;28;19908;-67
2022/08/26 13:35:55;;;;;;;;;;;26.10;99.90;;;;;;5095214;28;19915;-68
2022/08/26 13:38:20;;;;;;;;;;;26.10;99.90;;;;;;5095537;28;19908;-67
2022/08/26 13:40:46;;;;;;;;;;;25.70;99.90;;;;;;5094115;28;19958;-67
2022/08/26 13:43:12;;;;;;;;;;;25.80;99.90;;;;;;5095424;28;20349;-68
2022/08/26 13:45:38;;;;;;;;;;;26.10;99.90;;;;;;5095392;28;19908;-68
2022/08/26 13:48:04;;;;;;;;;;;26.20;99.90;;;;;;5095319;28;19912;-67
2022/08/26 13:50:30;;;;;;;;;;;26.40;99.90;;;;;;5095312;28;19908;-67
2022/08/26 13:52:55;;;;;;;;;;;26.60;99.90;;;;;;5094963;28;19931;-68
2022/08/26 13:55:21;;;;;;;;;;;26.60;99.90;;;;;;5094919;28;19908;-68
2022/08/26 13:57:46;;;;;;;;;;;26.60;99.90;;;;;;5095004;28;20374;-68
2022/08/26 14:00:12;;;;;;;;;;;26.30;99.90;;;;;;5094799;28;20003;-68
2022/08/26 14:02:38;;;;;;;;;;;26.20;99.90;;;;;;5094807;28;19912;-68
2022/08/26 14:05:03;;;;;;;;;;;26.10;99.90;;;;;;5094765;28;19915;-67
2022/08/26 14:07:29;;;;;;;;;;;26.00;99.90;;;;;;5094853;28;19989;-67
2022/08/26 14:09:54;;;;;;;;;;;26.20;99.90;;;;;;5094636;28;19920;-67
2022/08/26 14:12:20;;;;;;;;;;;26.30;99.90;;;;;;5094555;28;19954;-68
2022/08/26 14:14:46;;;;;;;;;;;26.20;99.90;;;;;;5094897;28;19908;-68
2022/08/26 14:17:15;;;;;;;;;;;26.10;99.90;;;;;;5094358;28;20374;-67
2022/08/26 14:19:42;;;;;;;;;;;26.10;99.90;;;;;;5076475;28;19908;-68
2022/08/26 14:22:08;;;;;;;;;;;26.10;99.90;;;;;;5076901;28;20011;-67
2022/08/26 14:24:33;;;;;;;;;;;26.30;99.90;;;;;;5094465;28;19947;-67
2022/08/26 14:26:59;;;;;;;;;;;26.20;99.90;;;;;;5094206;28;19915;-68
2022/08/26 14:29:25;;;;;;;;;;;26.10;99.90;;;;;;5094312;28;19908;-67